sensor_id;sensor_type;location;lat;lon;timestamp;P1;durP1;ratioP1;P2;durP2;ratioP2
21175;SDS011;10746;50.178;8.186;2022-09-01T00:01:41;3.33;;;3.03;;
21175;SDS011;10746;50.178;8.186;2022-09-01T00:04:12;3.28;;;2.97;;
21175;SDS011;10746;50.178;8.186;2022-09-01T00:06:41;3.42;;;3.13;;
21175;SDS011;10746;50.178;8.186;2022-09-01T00:09:09;4.85;;;2.60;;
21175;SDS011;10746;50.178;8.186;2022-09-01T00:11:38;6.13;;;3.28;;
21175;SDS011;10746;50.178;8.186;2022-09-01T00:14:06;2.95;;;2.78;;
21175;SDS011;10746;50.178;8.186;2022-09-01T00:16:35;3.88;;;3.00;;
21175;SDS011;10746;50.178;8.186;2022-09-01T00:19:03;2.97;;;2.67;;
21175;SDS011;10746;50.178;8.186;2022-09-01T00:21:31;3.40;;;2.67;;
21175;SDS011;10746;50.178;8.186;2022-09-01T00:24:00;4.13;;;3.10;;
21175;SDS011;10746;50.178;8.186;2022-09-01T00:26:27;4.13;;;2.78;;
21175;SDS011;10746;50.178;8.186;2022-09-01T00:28:54;2.70;;;2.42;;
21175;SDS011;10746;50.178;8.186;2022-09-01T00:31:21;2.90;;;2.65;;
21175;SDS011;10746;50.178;8.186;2022-09-01T00:33:49;2.50;;;2.30;;
21175;SDS011;10746;50.178;8.186;2022-09-01T00:36:17;4.82;;;2.70;;
21175;SDS011;10746;50.178;8.186;2022-09-01T00:38:45;3.05;;;2.25;;
21175;SDS011;10746;50.178;8.186;2022-09-01T00:41:13;2.65;;;2.45;;
21175;SDS011;10746;50.178;8.186;2022-09-01T00:43:43;3.30;;;2.38;;
21175;SDS011;10746;50.178;8.186;2022-09-01T00:46:13;2.40;;;2.30;;
21175;SDS011;10746;50.178;8.186;2022-09-01T00:48:41;2.85;;;2.75;;
21175;SDS011;10746;50.178;8.186;2022-09-01T00:51:10;2.60;;;2.40;;
21175;SDS011;10746;50.178;8.186;2022-09-01T00:53:37;2.78;;;2.58;;
21175;SDS011;10746;50.178;8.186;2022-09-01T00:56:06;5.30;;;2.60;;
21175;SDS011;10746;50.178;8.186;2022-09-01T00:58:33;2.40;;;2.20;;
21175;SDS011;10746;50.178;8.186;2022-09-01T01:01:02;4.10;;;2.33;;
21175;SDS011;10746;50.178;8.186;2022-09-01T01:03:30;4.03;;;2.55;;
21175;SDS011;10746;50.178;8.186;2022-09-01T01:05:57;4.20;;;2.20;;
21175;SDS011;10746;50.178;8.186;2022-09-01T01:08:35;2.33;;;2.22;;
21175;SDS011;10746;50.178;8.186;2022-09-01T01:11:04;2.35;;;2.20;;
21175;SDS011;10746;50.178;8.186;2022-09-01T01:13:40;2.65;;;2.45;;
21175;SDS011;10746;50.178;8.186;2022-09-01T01:16:13;2.10;;;2.00;;
21175;SDS011;10746;50.178;8.186;2022-09-01T01:18:40;2.30;;;2.10;;
21175;SDS011;10746;50.178;8.186;2022-09-01T01:21:09;3.40;;;2.40;;
21175;SDS011;10746;50.178;8.186;2022-09-01T01:24:00;2.13;;;1.98;;
21175;SDS011;10746;50.178;8.186;2022-09-01T01:26:32;3.80;;;2.38;;
21175;SDS011;10746;50.178;8.186;2022-09-01T01:28:59;2.35;;;2.15;;
21175;SDS011;10746;50.178;8.186;2022-09-01T01:31:27;3.20;;;2.65;;
21175;SDS011;10746;50.178;8.186;2022-09-01T01:33:55;2.47;;;2.13;;
21175;SDS011;10746;50.178;8.186;2022-09-01T01:36:24;2.33;;;2.13;;
21175;SDS011;10746;50.178;8.186;2022-09-01T01:38:57;2.58;;;2.45;;
21175;SDS011;10746;50.178;8.186;2022-09-01T01:41:26;2.85;;;2.45;;
21175;SDS011;10746;50.178;8.186;2022-09-01T01:43:55;3.70;;;2.45;;
21175;SDS011;10746;50.178;8.186;2022-09-01T01:46:22;5.95;;;2.45;;
21175;SDS011;10746;50.178;8.186;2022-09-01T01:48:50;2.50;;;2.30;;
21175;SDS011;10746;50.178;8.186;2022-09-01T01:51:17;3.08;;;2.72;;
21175;SDS011;10746;50.178;8.186;2022-09-01T01:53:49;5.47;;;2.58;;
21175;SDS011;10746;50.178;8.186;2022-09-01T01:56:16;3.08;;;2.63;;
21175;SDS011;10746;50.178;8.186;2022-09-01T01:58:43;2.80;;;2.60;;
21175;SDS011;10746;50.178;8.186;2022-09-01T02:01:11;3.03;;;2.72;;
21175;SDS011;10746;50.178;8.186;2022-09-01T02:03:41;2.67;;;2.47;;
21175;SDS011;10746;50.178;8.186;2022-09-01T02:06:08;5.25;;;2.60;;
21175;SDS011;10746;50.178;8.186;2022-09-01T02:08:36;3.83;;;2.30;;
21175;SDS011;10746;50.178;8.186;2022-09-01T02:11:05;5.70;;;3.97;;
21175;SDS011;10746;50.178;8.186;2022-09-01T02:13:32;6.35;;;4.63;;
21175;SDS011;10746;50.178;8.186;2022-09-01T02:16:00;5.03;;;4.63;;
21175;SDS011;10746;50.178;8.186;2022-09-01T02:18:31;7.20;;;4.70;;
21175;SDS011;10746;50.178;8.186;2022-09-01T02:21:00;5.80;;;5.20;;
21175;SDS011;10746;50.178;8.186;2022-09-01T02:23:28;5.82;;;5.22;;
21175;SDS011;10746;50.178;8.186;2022-09-01T02:25:56;6.90;;;5.20;;
21175;SDS011;10746;50.178;8.186;2022-09-01T02:28:26;6.13;;;5.55;;
21175;SDS011;10746;50.178;8.186;2022-09-01T02:30:56;7.53;;;5.50;;
21175;SDS011;10746;50.178;8.186;2022-09-01T02:33:27;7.00;;;5.88;;
21175;SDS011;10746;50.178;8.186;2022-09-01T02:35:57;9.50;;;6.65;;
21175;SDS011;10746;50.178;8.186;2022-09-01T02:38:25;10.63;;;5.95;;
21175;SDS011;10746;50.178;8.186;2022-09-01T02:40:54;7.57;;;6.65;;
21175;SDS011;10746;50.178;8.186;2022-09-01T02:43:21;7.53;;;6.28;;
21175;SDS011;10746;50.178;8.186;2022-09-01T02:45:50;8.82;;;6.70;;
21175;SDS011;10746;50.178;8.186;2022-09-01T02:48:18;10.18;;;6.80;;
21175;SDS011;10746;50.178;8.186;2022-09-01T02:50:48;7.70;;;5.85;;
21175;SDS011;10746;50.178;8.186;2022-09-01T02:53:17;7.35;;;6.63;;
21175;SDS011;10746;50.178;8.186;2022-09-01T02:55:45;8.30;;;6.60;;
21175;SDS011;10746;50.178;8.186;2022-09-01T02:58:12;7.38;;;6.00;;
21175;SDS011;10746;50.178;8.186;2022-09-01T03:00:40;9.52;;;6.53;;
21175;SDS011;10746;50.178;8.186;2022-09-01T03:03:07;6.95;;;6.22;;
21175;SDS011;10746;50.178;8.186;2022-09-01T03:05:37;6.30;;;5.50;;
21175;SDS011;10746;50.178;8.186;2022-09-01T03:08:08;8.13;;;5.55;;
21175;SDS011;10746;50.178;8.186;2022-09-01T03:10:40;5.50;;;4.90;;
21175;SDS011;10746;50.178;8.186;2022-09-01T03:13:09;5.95;;;5.13;;
21175;SDS011;10746;50.178;8.186;2022-09-01T03:15:37;5.32;;;4.30;;
21175;SDS011;10746;50.178;8.186;2022-09-01T03:18:05;4.75;;;4.35;;
21175;SDS011;10746;50.178;8.186;2022-09-01T03:20:34;6.60;;;4.32;;
21175;SDS011;10746;50.178;8.186;2022-09-01T03:23:04;4.80;;;4.20;;
21175;SDS011;10746;50.178;8.186;2022-09-01T03:25:33;5.40;;;5.00;;
21175;SDS011;10746;50.178;8.186;2022-09-01T03:28:02;6.90;;;4.40;;
21175;SDS011;10746;50.178;8.186;2022-09-01T03:30:31;4.88;;;4.47;;
21175;SDS011;10746;50.178;8.186;2022-09-01T03:33:00;8.95;;;5.10;;
21175;SDS011;10746;50.178;8.186;2022-09-01T03:35:28;5.72;;;4.60;;
21175;SDS011;10746;50.178;8.186;2022-09-01T03:37:56;6.03;;;5.05;;
21175;SDS011;10746;50.178;8.186;2022-09-01T03:40:23;5.60;;;5.00;;
21175;SDS011;10746;50.178;8.186;2022-09-01T03:42:51;6.03;;;5.40;;
21175;SDS011;10746;50.178;8.186;2022-09-01T03:45:21;6.00;;;5.30;;
21175;SDS011;10746;50.178;8.186;2022-09-01T03:47:49;6.10;;;5.55;;
21175;SDS011;10746;50.178;8.186;2022-09-01T03:50:18;6.05;;;5.45;;
21175;SDS011;10746;50.178;8.186;2022-09-01T03:52:46;5.50;;;5.00;;
21175;SDS011;10746;50.178;8.186;2022-09-01T03:55:15;8.63;;;5.13;;
21175;SDS011;10746;50.178;8.186;2022-09-01T03:57:47;9.15;;;4.97;;
21175;SDS011;10746;50.178;8.186;2022-09-01T04:00:14;5.07;;;4.57;;
21175;SDS011;10746;50.178;8.186;2022-09-01T04:02:46;5.13;;;4.63;;
21175;SDS011;10746;50.178;8.186;2022-09-01T04:05:14;13.93;;;4.95;;
21175;SDS011;10746;50.178;8.186;2022-09-01T04:07:41;5.32;;;4.78;;
21175;SDS011;10746;50.178;8.186;2022-09-01T04:10:09;5.70;;;4.82;;
21175;SDS011;10746;50.178;8.186;2022-09-01T04:12:36;5.22;;;4.78;;
21175;SDS011;10746;50.178;8.186;2022-09-01T04:15:03;5.07;;;4.57;;
21175;SDS011;10746;50.178;8.186;2022-09-01T04:17:32;5.50;;;4.97;;
21175;SDS011;10746;50.178;8.186;2022-09-01T04:20:18;10.35;;;5.75;;
21175;SDS011;10746;50.178;8.186;2022-09-01T04:22:45;6.10;;;5.50;;
21175;SDS011;10746;50.178;8.186;2022-09-01T04:25:14;6.18;;;5.57;;
21175;SDS011;10746;50.178;8.186;2022-09-01T04:27:42;6.65;;;5.55;;
21175;SDS011;10746;50.178;8.186;2022-09-01T04:30:10;9.40;;;5.63;;
21175;SDS011;10746;50.178;8.186;2022-09-01T04:32:37;6.60;;;5.47;;
21175;SDS011;10746;50.178;8.186;2022-09-01T04:35:04;6.05;;;5.53;;
21175;SDS011;10746;50.178;8.186;2022-09-01T04:37:36;7.75;;;5.10;;
21175;SDS011;10746;50.178;8.186;2022-09-01T04:40:03;7.45;;;5.53;;
21175;SDS011;10746;50.178;8.186;2022-09-01T04:42:31;6.15;;;5.55;;
21175;SDS011;10746;50.178;8.186;2022-09-01T04:44:59;5.90;;;5.25;;
21175;SDS011;10746;50.178;8.186;2022-09-01T04:47:27;8.50;;;5.40;;
21175;SDS011;10746;50.178;8.186;2022-09-01T04:49:55;8.55;;;5.85;;
21175;SDS011;10746;50.178;8.186;2022-09-01T04:52:22;7.15;;;6.03;;
21175;SDS011;10746;50.178;8.186;2022-09-01T04:54:50;6.60;;;5.82;;
21175;SDS011;10746;50.178;8.186;2022-09-01T04:57:18;7.80;;;6.43;;
21175;SDS011;10746;50.178;8.186;2022-09-01T04:59:45;8.40;;;6.63;;
21175;SDS011;10746;50.178;8.186;2022-09-01T05:02:12;7.90;;;6.13;;
21175;SDS011;10746;50.178;8.186;2022-09-01T05:04:39;8.00;;;6.57;;
21175;SDS011;10746;50.178;8.186;2022-09-01T05:07:10;7.95;;;6.28;;
21175;SDS011;10746;50.178;8.186;2022-09-01T05:09:38;7.15;;;5.82;;
21175;SDS011;10746;50.178;8.186;2022-09-01T05:12:06;6.97;;;6.20;;
21175;SDS011;10746;50.178;8.186;2022-09-01T05:14:41;7.05;;;6.35;;
21175;SDS011;10746;50.178;8.186;2022-09-01T05:17:12;8.05;;;6.57;;
21175;SDS011;10746;50.178;8.186;2022-09-01T05:19:43;6.28;;;5.45;;
21175;SDS011;10746;50.178;8.186;2022-09-01T05:22:11;6.28;;;5.68;;
21175;SDS011;10746;50.178;8.186;2022-09-01T05:24:39;7.60;;;5.32;;
21175;SDS011;10746;50.178;8.186;2022-09-01T05:27:08;6.30;;;5.53;;
21175;SDS011;10746;50.178;8.186;2022-09-01T05:29:36;5.93;;;5.28;;
21175;SDS011;10746;50.178;8.186;2022-09-01T05:32:05;8.85;;;5.50;;
21175;SDS011;10746;50.178;8.186;2022-09-01T05:34:35;8.25;;;5.45;;
21175;SDS011;10746;50.178;8.186;2022-09-01T05:37:03;5.60;;;5.10;;
21175;SDS011;10746;50.178;8.186;2022-09-01T05:39:30;7.93;;;5.35;;
21175;SDS011;10746;50.178;8.186;2022-09-01T05:41:57;8.48;;;5.63;;
21175;SDS011;10746;50.178;8.186;2022-09-01T05:44:26;7.45;;;5.53;;
21175;SDS011;10746;50.178;8.186;2022-09-01T05:46:53;8.68;;;5.30;;
21175;SDS011;10746;50.178;8.186;2022-09-01T05:49:20;9.30;;;6.25;;
21175;SDS011;10746;50.178;8.186;2022-09-01T05:51:47;7.63;;;5.95;;
21175;SDS011;10746;50.178;8.186;2022-09-01T05:54:16;5.55;;;5.05;;
21175;SDS011;10746;50.178;8.186;2022-09-01T05:56:45;6.05;;;5.43;;
21175;SDS011;10746;50.178;8.186;2022-09-01T05:59:13;6.93;;;5.68;;
21175;SDS011;10746;50.178;8.186;2022-09-01T06:01:41;8.40;;;5.60;;
21175;SDS011;10746;50.178;8.186;2022-09-01T06:04:08;9.32;;;5.72;;
21175;SDS011;10746;50.178;8.186;2022-09-01T06:06:36;9.40;;;6.13;;
21175;SDS011;10746;50.178;8.186;2022-09-01T06:09:06;6.53;;;5.93;;
21175;SDS011;10746;50.178;8.186;2022-09-01T06:11:35;7.60;;;6.53;;
21175;SDS011;10746;50.178;8.186;2022-09-01T06:14:02;6.80;;;6.07;;
21175;SDS011;10746;50.178;8.186;2022-09-01T06:16:29;9.52;;;6.40;;
21175;SDS011;10746;50.178;8.186;2022-09-01T06:18:58;8.13;;;6.60;;
21175;SDS011;10746;50.178;8.186;2022-09-01T06:21:25;9.80;;;6.10;;
21175;SDS011;10746;50.178;8.186;2022-09-01T06:23:53;9.80;;;6.78;;
21175;SDS011;10746;50.178;8.186;2022-09-01T06:26:21;9.63;;;7.28;;
21175;SDS011;10746;50.178;8.186;2022-09-01T06:28:51;8.65;;;6.65;;
21175;SDS011;10746;50.178;8.186;2022-09-01T06:31:18;8.77;;;7.38;;
21175;SDS011;10746;50.178;8.186;2022-09-01T06:33:47;8.20;;;7.03;;
21175;SDS011;10746;50.178;8.186;2022-09-01T06:36:16;21.08;;;7.50;;
21175;SDS011;10746;50.178;8.186;2022-09-01T06:38:44;8.77;;;6.82;;
21175;SDS011;10746;50.178;8.186;2022-09-01T06:41:11;8.65;;;7.00;;
21175;SDS011;10746;50.178;8.186;2022-09-01T06:43:38;7.95;;;7.15;;
21175;SDS011;10746;50.178;8.186;2022-09-01T06:46:06;12.32;;;7.75;;
21175;SDS011;10746;50.178;8.186;2022-09-01T06:48:33;7.63;;;6.63;;
21175;SDS011;10746;50.178;8.186;2022-09-01T06:51:00;12.35;;;7.00;;
21175;SDS011;10746;50.178;8.186;2022-09-01T06:53:29;9.27;;;6.90;;
21175;SDS011;10746;50.178;8.186;2022-09-01T06:55:58;8.02;;;6.43;;
21175;SDS011;10746;50.178;8.186;2022-09-01T06:58:26;8.85;;;6.07;;
21175;SDS011;10746;50.178;8.186;2022-09-01T07:00:54;5.70;;;5.20;;
21175;SDS011;10746;50.178;8.186;2022-09-01T07:03:20;5.55;;;5.05;;
21175;SDS011;10746;50.178;8.186;2022-09-01T07:05:49;6.97;;;4.40;;
21175;SDS011;10746;50.178;8.186;2022-09-01T07:08:17;6.18;;;4.60;;
21175;SDS011;10746;50.178;8.186;2022-09-01T07:10:48;5.20;;;3.97;;
21175;SDS011;10746;50.178;8.186;2022-09-01T07:13:21;3.33;;;3.13;;
21175;SDS011;10746;50.178;8.186;2022-09-01T07:15:48;3.20;;;2.90;;
21175;SDS011;10746;50.178;8.186;2022-09-01T07:18:15;4.63;;;2.65;;
21175;SDS011;10746;50.178;8.186;2022-09-01T07:20:42;3.30;;;3.00;;
21175;SDS011;10746;50.178;8.186;2022-09-01T07:23:11;3.30;;;2.72;;
21175;SDS011;10746;50.178;8.186;2022-09-01T07:25:39;2.85;;;2.75;;
21175;SDS011;10746;50.178;8.186;2022-09-01T07:28:09;4.20;;;2.92;;
21175;SDS011;10746;50.178;8.186;2022-09-01T07:30:39;5.00;;;3.15;;
21175;SDS011;10746;50.178;8.186;2022-09-01T07:33:07;2.88;;;2.65;;
21175;SDS011;10746;50.178;8.186;2022-09-01T07:35:37;2.90;;;2.70;;
21175;SDS011;10746;50.178;8.186;2022-09-01T07:38:06;3.30;;;2.97;;
21175;SDS011;10746;50.178;8.186;2022-09-01T07:40:33;2.85;;;2.33;;
21175;SDS011;10746;50.178;8.186;2022-09-01T07:43:03;4.75;;;2.30;;
21175;SDS011;10746;50.178;8.186;2022-09-01T07:45:33;2.35;;;2.25;;
21175;SDS011;10746;50.178;8.186;2022-09-01T07:48:02;6.13;;;2.50;;
21175;SDS011;10746;50.178;8.186;2022-09-01T07:50:31;2.35;;;2.25;;
21175;SDS011;10746;50.178;8.186;2022-09-01T07:52:59;2.60;;;2.40;;
21175;SDS011;10746;50.178;8.186;2022-09-01T07:55:25;3.13;;;2.20;;
21175;SDS011;10746;50.178;8.186;2022-09-01T07:57:53;1.98;;;1.88;;
21175;SDS011;10746;50.178;8.186;2022-09-01T08:00:19;2.88;;;2.20;;
21175;SDS011;10746;50.178;8.186;2022-09-01T08:02:48;3.25;;;2.60;;
21175;SDS011;10746;50.178;8.186;2022-09-01T08:05:16;2.22;;;2.13;;
21175;SDS011;10746;50.178;8.186;2022-09-01T08:07:46;3.15;;;1.98;;
21175;SDS011;10746;50.178;8.186;2022-09-01T08:10:13;5.68;;;2.08;;
21175;SDS011;10746;50.178;8.186;2022-09-01T08:12:41;2.63;;;2.00;;
21175;SDS011;10746;50.178;8.186;2022-09-01T08:15:08;3.28;;;2.15;;
21175;SDS011;10746;50.178;8.186;2022-09-01T08:17:37;5.45;;;2.13;;
21175;SDS011;10746;50.178;8.186;2022-09-01T08:20:06;2.33;;;2.13;;
21175;SDS011;10746;50.178;8.186;2022-09-01T08:22:34;3.33;;;2.10;;
21175;SDS011;10746;50.178;8.186;2022-09-01T08:25:02;4.80;;;2.30;;
21175;SDS011;10746;50.178;8.186;2022-09-01T08:27:30;3.05;;;2.00;;
21175;SDS011;10746;50.178;8.186;2022-09-01T08:29:57;3.00;;;2.30;;
21175;SDS011;10746;50.178;8.186;2022-09-01T08:32:24;2.33;;;2.22;;
21175;SDS011;10746;50.178;8.186;2022-09-01T08:34:51;2.67;;;2.47;;
21175;SDS011;10746;50.178;8.186;2022-09-01T08:37:20;2.90;;;2.70;;
21175;SDS011;10746;50.178;8.186;2022-09-01T08:39:46;2.75;;;2.55;;
21175;SDS011;10746;50.178;8.186;2022-09-01T08:42:14;9.10;;;2.92;;
21175;SDS011;10746;50.178;8.186;2022-09-01T08:44:57;4.43;;;2.67;;
21175;SDS011;10746;50.178;8.186;2022-09-01T08:47:28;3.17;;;2.90;;
21175;SDS011;10746;50.178;8.186;2022-09-01T08:49:57;3.25;;;3.00;;
21175;SDS011;10746;50.178;8.186;2022-09-01T08:52:29;2.90;;;2.70;;
21175;SDS011;10746;50.178;8.186;2022-09-01T08:54:58;3.42;;;3.03;;
21175;SDS011;10746;50.178;8.186;2022-09-01T08:57:30;4.72;;;2.72;;
21175;SDS011;10746;50.178;8.186;2022-09-01T08:59:59;4.15;;;3.10;;
21175;SDS011;10746;50.178;8.186;2022-09-01T09:02:34;4.00;;;3.00;;
21175;SDS011;10746;50.178;8.186;2022-09-01T09:05:16;3.47;;;3.00;;
21175;SDS011;10746;50.178;8.186;2022-09-01T09:08:00;3.72;;;3.00;;
21175;SDS011;10746;50.178;8.186;2022-09-01T09:10:47;5.75;;;3.17;;
21175;SDS011;10746;50.178;8.186;2022-09-01T09:13:21;6.97;;;3.10;;
21175;SDS011;10746;50.178;8.186;2022-09-01T09:15:57;3.40;;;3.10;;
21175;SDS011;10746;50.178;8.186;2022-09-01T09:18:27;4.15;;;3.17;;
21175;SDS011;10746;50.178;8.186;2022-09-01T09:21:00;2.60;;;2.40;;
21175;SDS011;10746;50.178;8.186;2022-09-01T09:23:35;4.35;;;3.03;;
21175;SDS011;10746;50.178;8.186;2022-09-01T09:26:07;3.38;;;2.90;;
21175;SDS011;10746;50.178;8.186;2022-09-01T09:28:33;3.38;;;2.63;;
21175;SDS011;10746;50.178;8.186;2022-09-01T09:33:52;3.63;;;3.15;;
21175;SDS011;10746;50.178;8.186;2022-09-01T09:36:20;4.85;;;2.97;;
21175;SDS011;10746;50.178;8.186;2022-09-01T09:39:00;3.03;;;2.83;;
21175;SDS011;10746;50.178;8.186;2022-09-01T09:41:31;4.15;;;2.70;;
21175;SDS011;10746;50.178;8.186;2022-09-01T09:43:58;5.25;;;2.67;;
21175;SDS011;10746;50.178;8.186;2022-09-01T09:46:33;4.22;;;3.05;;
21175;SDS011;10746;50.178;8.186;2022-09-01T09:49:05;2.85;;;2.65;;
21175;SDS011;10746;50.178;8.186;2022-09-01T09:51:34;3.33;;;2.90;;
21175;SDS011;10746;50.178;8.186;2022-09-01T09:54:13;3.33;;;2.88;;
21175;SDS011;10746;50.178;8.186;2022-09-01T09:56:45;2.70;;;2.50;;
21175;SDS011;10746;50.178;8.186;2022-09-01T09:59:17;3.10;;;2.90;;
21175;SDS011;10746;50.178;8.186;2022-09-01T10:01:49;4.38;;;3.10;;
21175;SDS011;10746;50.178;8.186;2022-09-01T10:04:30;2.72;;;2.55;;
21175;SDS011;10746;50.178;8.186;2022-09-01T10:06:59;3.60;;;3.30;;
21175;SDS011;10746;50.178;8.186;2022-09-01T10:09:35;3.97;;;3.40;;
21175;SDS011;10746;50.178;8.186;2022-09-01T10:12:02;2.90;;;2.70;;
21175;SDS011;10746;50.178;8.186;2022-09-01T10:14:32;3.40;;;3.00;;
21175;SDS011;10746;50.178;8.186;2022-09-01T10:17:11;4.90;;;2.92;;
21175;SDS011;10746;50.178;8.186;2022-09-01T10:19:41;3.90;;;2.38;;
21175;SDS011;10746;50.178;8.186;2022-09-01T10:22:12;6.85;;;2.70;;
21175;SDS011;10746;50.178;8.186;2022-09-01T10:24:40;2.88;;;2.67;;
21175;SDS011;10746;50.178;8.186;2022-09-01T10:27:09;5.03;;;2.72;;
21175;SDS011;10746;50.178;8.186;2022-09-01T10:29:42;2.80;;;2.42;;
21175;SDS011;10746;50.178;8.186;2022-09-01T10:32:15;3.55;;;2.47;;
21175;SDS011;10746;50.178;8.186;2022-09-01T10:34:44;4.15;;;2.30;;
21175;SDS011;10746;50.178;8.186;2022-09-01T10:37:12;2.35;;;2.20;;
21175;SDS011;10746;50.178;8.186;2022-09-01T10:42:54;2.50;;;2.20;;
21175;SDS011;10746;50.178;8.186;2022-09-01T10:45:29;2.20;;;2.00;;
21175;SDS011;10746;50.178;8.186;2022-09-01T10:50:51;2.30;;;2.00;;
21175;SDS011;10746;50.178;8.186;2022-09-01T10:53:36;1.90;;;1.80;;
21175;SDS011;10746;50.178;8.186;2022-09-01T10:56:04;2.45;;;2.00;;
21175;SDS011;10746;50.178;8.186;2022-09-01T10:58:42;2.80;;;1.73;;
21175;SDS011;10746;50.178;8.186;2022-09-01T11:01:29;1.85;;;1.75;;
21175;SDS011;10746;50.178;8.186;2022-09-01T11:07:52;1.80;;;1.70;;
21175;SDS011;10746;50.178;8.186;2022-09-01T11:13:20;1.90;;;1.80;;
21175;SDS011;10746;50.178;8.186;2022-09-01T11:15:55;2.78;;;1.70;;
21175;SDS011;10746;50.178;8.186;2022-09-01T11:18:43;1.90;;;1.65;;
21175;SDS011;10746;50.178;8.186;2022-09-01T11:21:14;2.97;;;1.77;;
21175;SDS011;10746;50.178;8.186;2022-09-01T11:23:42;5.18;;;1.75;;
21175;SDS011;10746;50.178;8.186;2022-09-01T11:32:12;2.10;;;1.90;;
21175;SDS011;10746;50.178;8.186;2022-09-01T11:34:41;2.10;;;1.85;;
21175;SDS011;10746;50.178;8.186;2022-09-01T11:37:11;2.10;;;2.00;;
21175;SDS011;10746;50.178;8.186;2022-09-01T11:39:44;2.00;;;1.90;;
21175;SDS011;10746;50.178;8.186;2022-09-01T11:42:16;3.53;;;1.75;;
21175;SDS011;10746;50.178;8.186;2022-09-01T11:47:36;2.70;;;1.80;;
21175;SDS011;10746;50.178;8.186;2022-09-01T11:50:07;1.95;;;1.67;;
21175;SDS011;10746;50.178;8.186;2022-09-01T11:52:51;2.20;;;1.88;;
21175;SDS011;10746;50.178;8.186;2022-09-01T11:55:26;2.08;;;1.70;;
21175;SDS011;10746;50.178;8.186;2022-09-01T11:57:54;1.70;;;1.60;;
21175;SDS011;10746;50.178;8.186;2022-09-01T12:00:24;2.85;;;1.80;;
21175;SDS011;10746;50.178;8.186;2022-09-01T12:02:53;2.13;;;1.85;;
21175;SDS011;10746;50.178;8.186;2022-09-01T12:05:27;3.25;;;1.88;;
21175;SDS011;10746;50.178;8.186;2022-09-01T12:07:55;2.97;;;1.85;;
21175;SDS011;10746;50.178;8.186;2022-09-01T12:10:27;2.97;;;1.70;;
21175;SDS011;10746;50.178;8.186;2022-09-01T12:13:02;3.22;;;1.80;;
21175;SDS011;10746;50.178;8.186;2022-09-01T12:15:30;3.63;;;1.70;;
21175;SDS011;10746;50.178;8.186;2022-09-01T12:18:08;1.63;;;1.52;;
21175;SDS011;10746;50.178;8.186;2022-09-01T12:20:40;3.35;;;1.60;;
21175;SDS011;10746;50.178;8.186;2022-09-01T12:23:14;1.88;;;1.75;;
21175;SDS011;10746;50.178;8.186;2022-09-01T12:25:44;2.00;;;1.90;;
21175;SDS011;10746;50.178;8.186;2022-09-01T12:28:12;2.50;;;1.90;;
21175;SDS011;10746;50.178;8.186;2022-09-01T12:30:40;4.50;;;2.00;;
21175;SDS011;10746;50.178;8.186;2022-09-01T12:33:09;4.03;;;1.90;;
21175;SDS011;10746;50.178;8.186;2022-09-01T12:35:38;1.90;;;1.80;;
21175;SDS011;10746;50.178;8.186;2022-09-01T12:38:22;2.25;;;2.03;;
21175;SDS011;10746;50.178;8.186;2022-09-01T12:40:51;2.60;;;1.95;;
21175;SDS011;10746;50.178;8.186;2022-09-01T12:43:26;1.80;;;1.70;;
21175;SDS011;10746;50.178;8.186;2022-09-01T12:45:55;2.95;;;1.50;;
21175;SDS011;10746;50.178;8.186;2022-09-01T12:48:24;1.90;;;1.80;;
21175;SDS011;10746;50.178;8.186;2022-09-01T12:50:54;2.85;;;1.60;;
21175;SDS011;10746;50.178;8.186;2022-09-01T12:53:27;2.03;;;1.55;;
21175;SDS011;10746;50.178;8.186;2022-09-01T12:56:00;3.38;;;1.80;;
21175;SDS011;10746;50.178;8.186;2022-09-01T12:58:40;2.80;;;2.05;;
21175;SDS011;10746;50.178;8.186;2022-09-01T13:01:21;3.47;;;1.67;;
21175;SDS011;10746;50.178;8.186;2022-09-01T13:04:05;1.67;;;1.58;;
21175;SDS011;10746;50.178;8.186;2022-09-01T13:06:34;2.08;;;1.70;;
21175;SDS011;10746;50.178;8.186;2022-09-01T13:09:02;2.00;;;1.80;;
21175;SDS011;10746;50.178;8.186;2022-09-01T13:11:29;3.15;;;1.85;;
21175;SDS011;10746;50.178;8.186;2022-09-01T13:13:56;1.98;;;1.80;;
21175;SDS011;10746;50.178;8.186;2022-09-01T13:16:22;2.03;;;1.92;;
21175;SDS011;10746;50.178;8.186;2022-09-01T13:18:49;1.70;;;1.70;;
21175;SDS011;10746;50.178;8.186;2022-09-01T13:21:16;2.00;;;1.90;;
21175;SDS011;10746;50.178;8.186;2022-09-01T13:23:42;2.08;;;1.60;;
21175;SDS011;10746;50.178;8.186;2022-09-01T13:26:12;2.95;;;1.73;;
21175;SDS011;10746;50.178;8.186;2022-09-01T13:28:38;4.45;;;1.63;;
21175;SDS011;10746;50.178;8.186;2022-09-01T13:31:05;7.97;;;2.10;;
21175;SDS011;10746;50.178;8.186;2022-09-01T13:33:32;1.70;;;1.60;;
21175;SDS011;10746;50.178;8.186;2022-09-01T13:36:00;2.92;;;1.85;;
21175;SDS011;10746;50.178;8.186;2022-09-01T13:38:28;1.55;;;1.45;;
21175;SDS011;10746;50.178;8.186;2022-09-01T13:40:56;5.60;;;1.60;;
21175;SDS011;10746;50.178;8.186;2022-09-01T13:43:25;1.73;;;1.63;;
21175;SDS011;10746;50.178;8.186;2022-09-01T13:45:52;2.15;;;1.85;;
21175;SDS011;10746;50.178;8.186;2022-09-01T13:48:20;2.47;;;1.90;;
21175;SDS011;10746;50.178;8.186;2022-09-01T13:50:48;1.65;;;1.63;;
21175;SDS011;10746;50.178;8.186;2022-09-01T13:53:16;1.98;;;1.83;;
21175;SDS011;10746;50.178;8.186;2022-09-01T13:55:45;2.95;;;1.80;;
21175;SDS011;10746;50.178;8.186;2022-09-01T13:58:11;2.00;;;1.80;;
21175;SDS011;10746;50.178;8.186;2022-09-01T14:00:41;2.00;;;1.90;;
21175;SDS011;10746;50.178;8.186;2022-09-01T14:03:10;3.00;;;2.08;;
21175;SDS011;10746;50.178;8.186;2022-09-01T14:05:39;3.80;;;1.83;;
21175;SDS011;10746;50.178;8.186;2022-09-01T14:08:07;1.60;;;1.50;;
21175;SDS011;10746;50.178;8.186;2022-09-01T14:10:37;1.67;;;1.67;;
21175;SDS011;10746;50.178;8.186;2022-09-01T14:13:05;2.10;;;1.73;;
21175;SDS011;10746;50.178;8.186;2022-09-01T14:15:33;1.83;;;1.60;;
21175;SDS011;10746;50.178;8.186;2022-09-01T14:18:01;1.80;;;1.65;;
21175;SDS011;10746;50.178;8.186;2022-09-01T14:20:29;2.85;;;1.63;;
21175;SDS011;10746;50.178;8.186;2022-09-01T14:23:00;6.40;;;2.00;;
21175;SDS011;10746;50.178;8.186;2022-09-01T14:25:28;2.10;;;2.00;;
21175;SDS011;10746;50.178;8.186;2022-09-01T14:27:57;4.30;;;2.00;;
21175;SDS011;10746;50.178;8.186;2022-09-01T14:30:25;3.05;;;2.50;;
21175;SDS011;10746;50.178;8.186;2022-09-01T14:32:52;1.98;;;1.88;;
21175;SDS011;10746;50.178;8.186;2022-09-01T14:35:21;3.63;;;2.00;;
21175;SDS011;10746;50.178;8.186;2022-09-01T14:37:49;3.90;;;1.95;;
21175;SDS011;10746;50.178;8.186;2022-09-01T14:40:17;3.55;;;1.98;;
21175;SDS011;10746;50.178;8.186;2022-09-01T14:42:45;1.70;;;1.65;;
21175;SDS011;10746;50.178;8.186;2022-09-01T14:45:13;4.57;;;1.90;;
21175;SDS011;10746;50.178;8.186;2022-09-01T14:47:42;3.00;;;2.00;;
21175;SDS011;10746;50.178;8.186;2022-09-01T14:50:09;2.38;;;2.08;;
21175;SDS011;10746;50.178;8.186;2022-09-01T14:52:38;5.28;;;2.10;;
21175;SDS011;10746;50.178;8.186;2022-09-01T14:55:05;3.85;;;1.77;;
21175;SDS011;10746;50.178;8.186;2022-09-01T14:57:31;2.83;;;1.80;;
21175;SDS011;10746;50.178;8.186;2022-09-01T14:59:58;1.80;;;1.70;;
21175;SDS011;10746;50.178;8.186;2022-09-01T15:02:25;2.95;;;1.88;;
21175;SDS011;10746;50.178;8.186;2022-09-01T15:04:53;3.80;;;1.70;;
21175;SDS011;10746;50.178;8.186;2022-09-01T15:07:21;2.35;;;2.17;;
21175;SDS011;10746;50.178;8.186;2022-09-01T15:09:49;3.10;;;1.95;;
21175;SDS011;10746;50.178;8.186;2022-09-01T15:12:15;2.10;;;2.00;;
21175;SDS011;10746;50.178;8.186;2022-09-01T15:14:43;2.30;;;2.20;;
21175;SDS011;10746;50.178;8.186;2022-09-01T15:17:10;3.30;;;2.20;;
21175;SDS011;10746;50.178;8.186;2022-09-01T15:19:37;2.05;;;1.95;;
21175;SDS011;10746;50.178;8.186;2022-09-01T15:22:04;1.98;;;1.83;;
21175;SDS011;10746;50.178;8.186;2022-09-01T15:24:32;1.70;;;1.70;;
21175;SDS011;10746;50.178;8.186;2022-09-01T15:27:00;3.28;;;1.88;;